sensor_id;sensor_type;location;lat;lon;timestamp;pressure;altitude;pressure_sealevel;temperature;humidity
9676;BME280;4876;42.656;23.292;2023-10-31T00:02:17;94580.41;;;12.25;75.25
9676;BME280;4876;42.656;23.292;2023-10-31T00:04:44;94567.53;;;12.15;75.21
9676;BME280;4876;42.656;23.292;2023-10-31T00:07:11;94579.13;;;12.23;75.14
9676;BME280;4876;42.656;23.292;2023-10-31T00:09:39;94575.56;;;12.27;74.65
9676;BME280;4876;42.656;23.292;2023-10-31T00:12:07;94579.13;;;12.31;74.72
9676;BME280;4876;42.656;23.292;2023-10-31T00:14:33;94565.78;;;12.36;75.00
9676;BME280;4876;42.656;23.292;2023-10-31T00:17:00;94567.78;;;12.39;74.81
9676;BME280;4876;42.656;23.292;2023-10-31T00:19:27;94559.06;;;12.48;74.59
9676;BME280;4876;42.656;23.292;2023-10-31T00:21:54;94554.56;;;12.48;74.43
9676;BME280;4876;42.656;23.292;2023-10-31T00:24:21;94561.44;;;12.32;75.40
9676;BME280;4876;42.656;23.292;2023-10-31T00:26:49;94559.25;;;12.43;74.97
9676;BME280;4876;42.656;23.292;2023-10-31T00:29:16;94558.66;;;12.37;75.01
9676;BME280;4876;42.656;23.292;2023-10-31T00:31:43;94551.34;;;12.43;74.92
9676;BME280;4876;42.656;23.292;2023-10-31T00:34:10;94563.28;;;12.40;75.30
9676;BME280;4876;42.656;23.292;2023-10-31T00:36:37;94557.69;;;12.42;75.12
9676;BME280;4876;42.656;23.292;2023-10-31T00:39:04;94554.47;;;12.36;75.13
9676;BME280;4876;42.656;23.292;2023-10-31T00:41:31;94554.34;;;12.24;75.44
9676;BME280;4876;42.656;23.292;2023-10-31T00:43:59;94547.84;;;12.04;76.30
9676;BME280;4876;42.656;23.292;2023-10-31T00:46:26;94543.22;;;11.92;77.01
9676;BME280;4876;42.656;23.292;2023-10-31T00:48:53;94544.16;;;11.96;76.98
9676;BME280;4876;42.656;23.292;2023-10-31T00:51:20;94542.75;;;11.99;77.00
9676;BME280;4876;42.656;23.292;2023-10-31T00:53:47;94539.78;;;12.09;76.92
9676;BME280;4876;42.656;23.292;2023-10-31T00:56:14;94545.38;;;12.07;76.18
9676;BME280;4876;42.656;23.292;2023-10-31T00:58:41;94544.47;;;11.86;77.28
9676;BME280;4876;42.656;23.292;2023-10-31T01:01:09;94533.59;;;11.79;77.73
9676;BME280;4876;42.656;23.292;2023-10-31T01:03:36;94526.63;;;11.92;77.84
9676;BME280;4876;42.656;23.292;2023-10-31T01:06:03;94530.22;;;11.87;76.86
9676;BME280;4876;42.656;23.292;2023-10-31T01:08:30;94531.59;;;11.93;77.27
9676;BME280;4876;42.656;23.292;2023-10-31T01:10:57;94528.97;;;11.93;76.75
9676;BME280;4876;42.656;23.292;2023-10-31T01:13:23;94527.09;;;11.85;76.96
9676;BME280;4876;42.656;23.292;2023-10-31T01:15:50;94526.34;;;11.84;77.27
9676;BME280;4876;42.656;23.292;2023-10-31T01:18:18;94516.13;;;11.83;77.92
9676;BME280;4876;42.656;23.292;2023-10-31T01:20:45;94531.00;;;11.88;78.05
9676;BME280;4876;42.656;23.292;2023-10-31T01:23:12;94520.75;;;11.86;77.51
9676;BME280;4876;42.656;23.292;2023-10-31T01:25:39;94522.13;;;11.92;77.34
9676;BME280;4876;42.656;23.292;2023-10-31T01:28:06;94519.19;;;11.85;77.78
9676;BME280;4876;42.656;23.292;2023-10-31T01:30:33;94518.13;;;11.69;78.57
9676;BME280;4876;42.656;23.292;2023-10-31T01:32:59;94513.16;;;11.67;78.57
9676;BME280;4876;42.656;23.292;2023-10-31T01:35:28;94504.63;;;11.70;78.99
9676;BME280;4876;42.656;23.292;2023-10-31T01:37:54;94510.97;;;11.78;78.77
9676;BME280;4876;42.656;23.292;2023-10-31T01:40:21;94511.44;;;11.54;79.30
9676;BME280;4876;42.656;23.292;2023-10-31T01:42:51;94505.56;;;11.57;79.37
9676;BME280;4876;42.656;23.292;2023-10-31T01:45:18;94507.41;;;11.65;79.18
9676;BME280;4876;42.656;23.292;2023-10-31T01:47:47;94509.13;;;11.70;78.96
9676;BME280;4876;42.656;23.292;2023-10-31T01:50:15;94513.00;;;11.72;78.93
9676;BME280;4876;42.656;23.292;2023-10-31T01:52:44;94509.09;;;11.78;78.87
9676;BME280;4876;42.656;23.292;2023-10-31T01:55:12;94490.53;;;11.66;78.70
9676;BME280;4876;42.656;23.292;2023-10-31T01:57:39;94508.97;;;11.83;78.92
9676;BME280;4876;42.656;23.292;2023-10-31T02:00:07;94494.84;;;11.79;78.89
9676;BME280;4876;42.656;23.292;2023-10-31T02:02:34;94499.84;;;11.81;78.92
9676;BME280;4876;42.656;23.292;2023-10-31T02:05:05;94487.56;;;11.76;78.92
9676;BME280;4876;42.656;23.292;2023-10-31T02:07:32;94499.66;;;11.77;79.37
9676;BME280;4876;42.656;23.292;2023-10-31T02:10:00;94494.84;;;11.79;79.44
9676;BME280;4876;42.656;23.292;2023-10-31T02:12:33;94488.03;;;11.78;79.50
9676;BME280;4876;42.656;23.292;2023-10-31T02:15:00;94492.22;;;11.79;79.54
9676;BME280;4876;42.656;23.292;2023-10-31T02:17:27;94483.25;;;11.63;80.50
9676;BME280;4876;42.656;23.292;2023-10-31T02:19:54;94488.19;;;11.73;80.15
9676;BME280;4876;42.656;23.292;2023-10-31T02:22:22;94484.63;;;11.78;79.95
9676;BME280;4876;42.656;23.292;2023-10-31T02:24:49;94483.25;;;11.80;79.93
9676;BME280;4876;42.656;23.292;2023-10-31T02:27:16;94479.50;;;11.90;79.57
9676;BME280;4876;42.656;23.292;2023-10-31T02:29:42;94481.84;;;11.83;79.37
9676;BME280;4876;42.656;23.292;2023-10-31T02:32:09;94479.03;;;11.79;79.82
9676;BME280;4876;42.656;23.292;2023-10-31T02:34:36;94483.84;;;11.77;79.63
9676;BME280;4876;42.656;23.292;2023-10-31T02:37:03;94474.09;;;11.78;79.44
9676;BME280;4876;42.656;23.292;2023-10-31T02:39:32;94469.13;;;11.76;79.39
9676;BME280;4876;42.656;23.292;2023-10-31T02:41:59;94477.81;;;11.77;79.39
9676;BME280;4876;42.656;23.292;2023-10-31T02:44:26;94475.50;;;11.75;79.33
9676;BME280;4876;42.656;23.292;2023-10-31T02:46:53;94479.22;;;11.74;78.94
9676;BME280;4876;42.656;23.292;2023-10-31T02:49:20;94486.66;;;11.72;78.78
9676;BME280;4876;42.656;23.292;2023-10-31T02:51:47;94485.09;;;11.71;78.55
9676;BME280;4876;42.656;23.292;2023-10-31T02:54:13;94477.84;;;11.68;78.87
9676;BME280;4876;42.656;23.292;2023-10-31T02:56:42;94483.41;;;11.67;78.90
9676;BME280;4876;42.656;23.292;2023-10-31T02:59:09;94483.09;;;11.68;79.00
9676;BME280;4876;42.656;23.292;2023-10-31T03:01:36;94484.19;;;11.58;79.40
9676;BME280;4876;42.656;23.292;2023-10-31T03:04:02;94477.69;;;11.56;79.29
9676;BME280;4876;42.656;23.292;2023-10-31T03:06:28;94482.97;;;11.39;80.22
9676;BME280;4876;42.656;23.292;2023-10-31T03:08:55;94480.94;;;11.36;80.38
9676;BME280;4876;42.656;23.292;2023-10-31T03:11:22;94480.78;;;11.41;80.22
9676;BME280;4876;42.656;23.292;2023-10-31T03:13:51;94481.44;;;11.38;80.15
9676;BME280;4876;42.656;23.292;2023-10-31T03:16:19;94482.03;;;11.35;80.13
9676;BME280;4876;42.656;23.292;2023-10-31T03:18:46;94480.34;;;11.39;80.17
9676;BME280;4876;42.656;23.292;2023-10-31T03:21:13;94478.47;;;11.39;80.00
9676;BME280;4876;42.656;23.292;2023-10-31T03:23:41;94468.53;;;11.36;79.80
9676;BME280;4876;42.656;23.292;2023-10-31T03:26:07;94473.53;;;11.38;79.70
9676;BME280;4876;42.656;23.292;2023-10-31T03:28:34;94463.91;;;11.42;79.48
9676;BME280;4876;42.656;23.292;2023-10-31T03:31:03;94457.88;;;11.32;79.96
9676;BME280;4876;42.656;23.292;2023-10-31T03:33:30;94457.88;;;11.24;80.52
9676;BME280;4876;42.656;23.292;2023-10-31T03:35:57;94451.06;;;11.14;81.41
9676;BME280;4876;42.656;23.292;2023-10-31T03:38:24;94451.03;;;10.62;84.12
9676;BME280;4876;42.656;23.292;2023-10-31T03:40:51;94443.41;;;10.52;85.74
9676;BME280;4876;42.656;23.292;2023-10-31T03:43:18;94440.78;;;10.61;86.24
9676;BME280;4876;42.656;23.292;2023-10-31T03:45:46;94453.47;;;10.50;86.68
9676;BME280;4876;42.656;23.292;2023-10-31T03:48:15;94457.44;;;10.39;87.19
9676;BME280;4876;42.656;23.292;2023-10-31T03:50:42;94452.19;;;10.39;86.66
9676;BME280;4876;42.656;23.292;2023-10-31T03:53:09;94461.50;;;10.45;86.80
9676;BME280;4876;42.656;23.292;2023-10-31T03:55:36;94466.06;;;10.31;86.89
9676;BME280;4876;42.656;23.292;2023-10-31T03:58:03;94461.28;;;10.33;87.52
9676;BME280;4876;42.656;23.292;2023-10-31T04:00:31;94446.28;;;10.33;86.37
9676;BME280;4876;42.656;23.292;2023-10-31T04:02:58;94464.44;;;10.43;86.41
9676;BME280;4876;42.656;23.292;2023-10-31T04:05:26;94448.97;;;10.50;85.47
9676;BME280;4876;42.656;23.292;2023-10-31T04:07:53;94454.25;;;10.50;85.31
9676;BME280;4876;42.656;23.292;2023-10-31T04:10:20;94463.03;;;10.55;84.20
9676;BME280;4876;42.656;23.292;2023-10-31T04:12:47;94464.31;;;10.57;84.50
9676;BME280;4876;42.656;23.292;2023-10-31T04:15:14;94456.19;;;10.36;84.68
9676;BME280;4876;42.656;23.292;2023-10-31T04:17:41;94449.13;;;10.45;84.58
9676;BME280;4876;42.656;23.292;2023-10-31T04:20:08;94451.75;;;10.54;84.56
9676;BME280;4876;42.656;23.292;2023-10-31T04:22:37;94451.13;;;10.48;83.82
9676;BME280;4876;42.656;23.292;2023-10-31T04:25:04;94438.13;;;10.12;84.77
9676;BME280;4876;42.656;23.292;2023-10-31T04:27:31;94435.94;;;9.97;86.76
9676;BME280;4876;42.656;23.292;2023-10-31T04:29:58;94438.69;;;9.92;86.16
9676;BME280;4876;42.656;23.292;2023-10-31T04:32:25;94426.81;;;9.63;87.58
9676;BME280;4876;42.656;23.292;2023-10-31T04:34:52;94438.34;;;9.85;87.56
9676;BME280;4876;42.656;23.292;2023-10-31T04:37:19;94431.53;;;9.84;87.90
9676;BME280;4876;42.656;23.292;2023-10-31T04:39:47;94430.34;;;9.14;91.70
9676;BME280;4876;42.656;23.292;2023-10-31T04:42:14;94438.09;;;9.41;91.96
9676;BME280;4876;42.656;23.292;2023-10-31T04:44:40;94429.22;;;9.51;91.27
9676;BME280;4876;42.656;23.292;2023-10-31T04:47:07;94432.84;;;9.64;90.40
9676;BME280;4876;42.656;23.292;2023-10-31T04:49:34;94440.94;;;9.76;89.27
9676;BME280;4876;42.656;23.292;2023-10-31T04:52:02;94445.00;;;9.91;88.28
9676;BME280;4876;42.656;23.292;2023-10-31T04:54:29;94454.44;;;9.92;87.72
9676;BME280;4876;42.656;23.292;2023-10-31T04:56:57;94453.84;;;9.95;87.85
9676;BME280;4876;42.656;23.292;2023-10-31T04:59:24;94458.97;;;10.00;86.99
9676;BME280;4876;42.656;23.292;2023-10-31T05:01:51;94463.03;;;10.06;86.94
9676;BME280;4876;42.656;23.292;2023-10-31T05:04:18;94458.81;;;10.05;86.48
9676;BME280;4876;42.656;23.292;2023-10-31T05:06:44;94461.88;;;9.98;87.10
9676;BME280;4876;42.656;23.292;2023-10-31T05:09:13;94465.28;;;9.99;87.77
9676;BME280;4876;42.656;23.292;2023-10-31T05:11:40;94456.28;;;10.22;86.49
9676;BME280;4876;42.656;23.292;2023-10-31T05:14:09;94462.31;;;10.23;85.69
9676;BME280;4876;42.656;23.292;2023-10-31T05:16:40;94466.13;;;10.48;85.60
9676;BME280;4876;42.656;23.292;2023-10-31T05:19:07;94467.41;;;10.59;83.66
9676;BME280;4876;42.656;23.292;2023-10-31T05:21:34;94471.38;;;10.48;83.35
9676;BME280;4876;42.656;23.292;2023-10-31T05:24:01;94460.47;;;10.23;84.67
9676;BME280;4876;42.656;23.292;2023-10-31T05:26:28;94467.53;;;10.14;84.65
9676;BME280;4876;42.656;23.292;2023-10-31T05:28:55;94469.31;;;9.96;85.21
9676;BME280;4876;42.656;23.292;2023-10-31T05:31:24;94456.94;;;9.97;86.15
9676;BME280;4876;42.656;23.292;2023-10-31T05:33:51;94473.53;;;10.06;86.34
9676;BME280;4876;42.656;23.292;2023-10-31T05:36:18;94475.88;;;10.16;86.06
9676;BME280;4876;42.656;23.292;2023-10-31T05:38:46;94475.03;;;10.30;85.98
9676;BME280;4876;42.656;23.292;2023-10-31T05:41:13;94482.66;;;10.40;85.96
9676;BME280;4876;42.656;23.292;2023-10-31T05:43:40;94472.34;;;10.52;85.53
9676;BME280;4876;42.656;23.292;2023-10-31T05:46:07;94454.88;;;10.56;84.31
9676;BME280;4876;42.656;23.292;2023-10-31T05:48:38;94472.47;;;10.56;83.84
9676;BME280;4876;42.656;23.292;2023-10-31T05:51:10;94474.06;;;10.57;84.37
9676;BME280;4876;42.656;23.292;2023-10-31T05:53:39;94481.94;;;10.57;84.57
9676;BME280;4876;42.656;23.292;2023-10-31T05:56:07;94488.69;;;10.49;85.00
9676;BME280;4876;42.656;23.292;2023-10-31T05:58:34;94491.81;;;10.51;85.49
9676;BME280;4876;42.656;23.292;2023-10-31T06:01:00;94498.13;;;10.41;85.61
9676;BME280;4876;42.656;23.292;2023-10-31T06:03:27;94498.63;;;10.52;85.66
9676;BME280;4876;42.656;23.292;2023-10-31T06:05:55;94500.22;;;10.70;85.30
9676;BME280;4876;42.656;23.292;2023-10-31T06:08:22;94509.00;;;10.57;85.96
9676;BME280;4876;42.656;23.292;2023-10-31T06:10:53;94501.31;;;10.30;87.04
9676;BME280;4876;42.656;23.292;2023-10-31T06:13:19;94504.16;;;10.42;87.67
9676;BME280;4876;42.656;23.292;2023-10-31T06:15:46;94510.03;;;10.16;88.42
9676;BME280;4876;42.656;23.292;2023-10-31T06:18:13;94508.38;;;10.20;89.29
9676;BME280;4876;42.656;23.292;2023-10-31T06:20:40;94503.66;;;10.31;89.00
9676;BME280;4876;42.656;23.292;2023-10-31T06:23:08;94500.19;;;10.22;91.30
9676;BME280;4876;42.656;23.292;2023-10-31T06:25:35;94509.31;;;10.24;90.47
9676;BME280;4876;42.656;23.292;2023-10-31T06:28:02;94510.28;;;10.29;89.84
9676;BME280;4876;42.656;23.292;2023-10-31T06:30:29;94507.59;;;10.51;88.55
9676;BME280;4876;42.656;23.292;2023-10-31T06:32:56;94506.66;;;10.56;88.48
9676;BME280;4876;42.656;23.292;2023-10-31T06:35:23;94513.06;;;10.63;88.09
9676;BME280;4876;42.656;23.292;2023-10-31T06:37:51;94514.47;;;10.69;87.86
9676;BME280;4876;42.656;23.292;2023-10-31T06:40:19;94509.09;;;10.92;87.36
9676;BME280;4876;42.656;23.292;2023-10-31T06:42:46;94507.41;;;11.04;86.51
9676;BME280;4876;42.656;23.292;2023-10-31T06:45:13;94498.28;;;11.11;84.99
9676;BME280;4876;42.656;23.292;2023-10-31T06:47:40;94499.22;;;11.41;84.45
9676;BME280;4876;42.656;23.292;2023-10-31T06:50:08;94496.91;;;11.48;83.74
9676;BME280;4876;42.656;23.292;2023-10-31T06:52:35;94498.16;;;11.33;84.64
9676;BME280;4876;42.656;23.292;2023-10-31T06:55:03;94492.88;;;11.42;84.66
9676;BME280;4876;42.656;23.292;2023-10-31T06:57:31;94491.31;;;11.58;82.93
9676;BME280;4876;42.656;23.292;2023-10-31T06:59:58;94508.84;;;11.45;85.53
9676;BME280;4876;42.656;23.292;2023-10-31T07:02:25;94496.59;;;11.58;87.88
9676;BME280;4876;42.656;23.292;2023-10-31T07:04:52;94490.53;;;11.83;85.25
9676;BME280;4876;42.656;23.292;2023-10-31T07:07:19;94493.94;;;11.93;82.43
9676;BME280;4876;42.656;23.292;2023-10-31T07:09:46;94506.31;;;12.01;82.12
9676;BME280;4876;42.656;23.292;2023-10-31T07:12:12;94495.91;;;12.04;81.30
9676;BME280;4876;42.656;23.292;2023-10-31T07:14:41;94496.06;;;12.08;80.93
9676;BME280;4876;42.656;23.292;2023-10-31T07:17:08;94488.00;;;12.04;81.97
9676;BME280;4876;42.656;23.292;2023-10-31T07:19:35;94498.22;;;12.15;80.29
9676;BME280;4876;42.656;23.292;2023-10-31T07:22:02;94489.38;;;12.19;79.32
9676;BME280;4876;42.656;23.292;2023-10-31T07:24:29;94497.44;;;12.14;80.49
9676;BME280;4876;42.656;23.292;2023-10-31T07:26:55;94495.78;;;11.92;80.96
9676;BME280;4876;42.656;23.292;2023-10-31T07:29:22;94492.84;;;11.94;81.50
9676;BME280;4876;42.656;23.292;2023-10-31T07:31:51;94492.25;;;12.35;80.66
9676;BME280;4876;42.656;23.292;2023-10-31T07:34:17;94497.88;;;12.63;79.09
9676;BME280;4876;42.656;23.292;2023-10-31T07:36:45;94489.91;;;12.72;78.53
9676;BME280;4876;42.656;23.292;2023-10-31T07:39:11;94488.00;;;12.81;77.69
9676;BME280;4876;42.656;23.292;2023-10-31T07:41:39;94492.91;;;12.91;77.06
9676;BME280;4876;42.656;23.292;2023-10-31T07:44:06;94475.41;;;12.86;77.41
9676;BME280;4876;42.656;23.292;2023-10-31T07:46:33;94481.81;;;12.98;77.39
9676;BME280;4876;42.656;23.292;2023-10-31T07:49:01;94476.09;;;12.96;77.23
9676;BME280;4876;42.656;23.292;2023-10-31T07:51:28;94469.97;;;13.04;77.95
9676;BME280;4876;42.656;23.292;2023-10-31T07:53:55;94474.66;;;13.28;77.00
9676;BME280;4876;42.656;23.292;2023-10-31T07:56:23;94463.81;;;13.41;76.45
9676;BME280;4876;42.656;23.292;2023-10-31T07:58:51;94459.84;;;13.56;75.50
9676;BME280;4876;42.656;23.292;2023-10-31T08:01:18;94450.63;;;13.74;74.83
9676;BME280;4876;42.656;23.292;2023-10-31T08:03:45;94454.00;;;13.63;75.55
9676;BME280;4876;42.656;23.292;2023-10-31T08:06:14;94446.25;;;13.91;73.39
9676;BME280;4876;42.656;23.292;2023-10-31T08:08:41;94444.75;;;14.02;72.74
9676;BME280;4876;42.656;23.292;2023-10-31T08:11:08;94446.78;;;14.17;71.54
9676;BME280;4876;42.656;23.292;2023-10-31T08:13:36;94446.31;;;14.27;71.15
9676;BME280;4876;42.656;23.292;2023-10-31T08:16:03;94460.22;;;14.37;70.78
9676;BME280;4876;42.656;23.292;2023-10-31T08:18:30;94443.81;;;14.43;71.25
9676;BME280;4876;42.656;23.292;2023-10-31T08:20:57;94444.38;;;14.61;71.03
9676;BME280;4876;42.656;23.292;2023-10-31T08:23:25;94439.84;;;14.74;70.28
9676;BME280;4876;42.656;23.292;2023-10-31T08:25:52;94426.69;;;14.90;70.16
9676;BME280;4876;42.656;23.292;2023-10-31T08:28:22;94422.66;;;15.08;69.13
9676;BME280;4876;42.656;23.292;2023-10-31T08:30:49;94428.16;;;15.15;69.02
9676;BME280;4876;42.656;23.292;2023-10-31T08:33:16;94418.88;;;15.21;69.44
9676;BME280;4876;42.656;23.292;2023-10-31T08:35:43;94409.34;;;15.32;69.50
9676;BME280;4876;42.656;23.292;2023-10-31T08:38:10;94413.59;;;15.49;68.84
9676;BME280;4876;42.656;23.292;2023-10-31T08:40:38;94406.06;;;15.51;68.33
9676;BME280;4876;42.656;23.292;2023-10-31T08:43:05;94402.16;;;15.61;67.82
9676;BME280;4876;42.656;23.292;2023-10-31T08:45:32;94397.31;;;15.63;67.81
9676;BME280;4876;42.656;23.292;2023-10-31T08:47:59;94395.81;;;15.78;67.14
9676;BME280;4876;42.656;23.292;2023-10-31T08:50:26;94386.91;;;15.86;66.30
9676;BME280;4876;42.656;23.292;2023-10-31T08:52:53;94383.31;;;15.94;65.85
9676;BME280;4876;42.656;23.292;2023-10-31T08:55:20;94375.22;;;16.03;65.07
9676;BME280;4876;42.656;23.292;2023-10-31T08:57:48;94371.56;;;16.27;64.45
9676;BME280;4876;42.656;23.292;2023-10-31T09:00:17;94385.75;;;16.50;63.53
9676;BME280;4876;42.656;23.292;2023-10-31T09:02:44;94378.81;;;16.61;62.37
9676;BME280;4876;42.656;23.292;2023-10-31T09:05:11;94373.91;;;16.63;62.14
9676;BME280;4876;42.656;23.292;2023-10-31T09:07:38;94357.69;;;16.49;62.47
9676;BME280;4876;42.656;23.292;2023-10-31T09:10:09;94357.72;;;16.68;62.18
9676;BME280;4876;42.656;23.292;2023-10-31T09:12:36;94342.66;;;16.73;60.68
9676;BME280;4876;42.656;23.292;2023-10-31T09:15:05;94346.09;;;16.73;59.89
9676;BME280;4876;42.656;23.292;2023-10-31T09:17:32;94347.56;;;16.90;58.68
9676;BME280;4876;42.656;23.292;2023-10-31T09:19:58;94348.47;;;16.98;58.08
9676;BME280;4876;42.656;23.292;2023-10-31T09:22:25;94336.50;;;16.88;57.46
9676;BME280;4876;42.656;23.292;2023-10-31T09:24:52;94329.31;;;17.08;57.79
9676;BME280;4876;42.656;23.292;2023-10-31T09:27:19;94326.38;;;17.13;57.58
9676;BME280;4876;42.656;23.292;2023-10-31T09:29:46;94319.78;;;17.26;57.99
9676;BME280;4876;42.656;23.292;2023-10-31T09:32:14;94319.56;;;17.35;56.17
9676;BME280;4876;42.656;23.292;2023-10-31T09:34:42;94315.50;;;17.41;55.87
9676;BME280;4876;42.656;23.292;2023-10-31T09:37:09;94313.38;;;17.50;55.87
9676;BME280;4876;42.656;23.292;2023-10-31T09:39:36;94303.97;;;17.56;56.11
9676;BME280;4876;42.656;23.292;2023-10-31T09:42:04;94294.28;;;17.67;56.12
9676;BME280;4876;42.656;23.292;2023-10-31T09:44:30;94288.34;;;17.74;56.49
9676;BME280;4876;42.656;23.292;2023-10-31T09:46:57;94287.28;;;17.79;56.11
9676;BME280;4876;42.656;23.292;2023-10-31T09:49:26;94286.69;;;17.89;55.69
9676;BME280;4876;42.656;23.292;2023-10-31T09:51:54;94277.53;;;17.86;56.12
9676;BME280;4876;42.656;23.292;2023-10-31T09:54:22;94272.41;;;18.00;55.31
9676;BME280;4876;42.656;23.292;2023-10-31T09:56:50;94274.09;;;18.12;55.16
9676;BME280;4876;42.656;23.292;2023-10-31T09:59:17;94263.31;;;18.01;55.50
9676;BME280;4876;42.656;23.292;2023-10-31T10:01:44;94259.63;;;18.10;55.14
9676;BME280;4876;42.656;23.292;2023-10-31T10:04:11;94264.53;;;18.34;54.83
9676;BME280;4876;42.656;23.292;2023-10-31T10:06:50;94252.47;;;18.44;54.33
9676;BME280;4876;42.656;23.292;2023-10-31T10:09:17;94243.53;;;18.59;53.32
9676;BME280;4876;42.656;23.292;2023-10-31T10:11:43;94241.28;;;18.61;53.55
9676;BME280;4876;42.656;23.292;2023-10-31T10:14:11;94235.25;;;18.64;53.54
9676;BME280;4876;42.656;23.292;2023-10-31T10:16:38;94225.47;;;18.75;53.05
9676;BME280;4876;42.656;23.292;2023-10-31T10:19:15;94227.88;;;18.84;52.19
9676;BME280;4876;42.656;23.292;2023-10-31T10:21:50;94215.72;;;18.87;52.38
9676;BME280;4876;42.656;23.292;2023-10-31T10:24:18;94213.41;;;18.85;52.22
9676;BME280;4876;42.656;23.292;2023-10-31T10:26:45;94219.94;;;18.91;52.54
9676;BME280;4876;42.656;23.292;2023-10-31T10:29:14;94210.44;;;18.94;51.90
9676;BME280;4876;42.656;23.292;2023-10-31T10:31:41;94215.06;;;18.97;52.02
9676;BME280;4876;42.656;23.292;2023-10-31T10:34:08;94217.41;;;19.05;52.08
9676;BME280;4876;42.656;23.292;2023-10-31T10:36:36;94201.84;;;19.07;50.90
9676;BME280;4876;42.656;23.292;2023-10-31T10:39:05;94206.94;;;19.23;50.45
9676;BME280;4876;42.656;23.292;2023-10-31T10:41:35;94198.47;;;19.14;50.36
9676;BME280;4876;42.656;23.292;2023-10-31T10:44:04;94190.16;;;19.19;50.89
9676;BME280;4876;42.656;23.292;2023-10-31T10:46:34;94178.84;;;19.36;49.90
9676;BME280;4876;42.656;23.292;2023-10-31T10:49:03;94177.44;;;19.50;49.61
9676;BME280;4876;42.656;23.292;2023-10-31T10:51:40;94168.56;;;19.35;49.84
9676;BME280;4876;42.656;23.292;2023-10-31T10:54:15;94167.41;;;19.32;49.65
9676;BME280;4876;42.656;23.292;2023-10-31T10:56:46;94160.81;;;19.19;49.23
9676;BME280;4876;42.656;23.292;2023-10-31T10:59:26;94154.06;;;19.32;49.67
9676;BME280;4876;42.656;23.292;2023-10-31T11:01:58;94151.41;;;19.32;49.09
9676;BME280;4876;42.656;23.292;2023-10-31T11:04:26;94153.66;;;19.30;48.23
9676;BME280;4876;42.656;23.292;2023-10-31T11:06:53;94155.97;;;19.32;48.29
9676;BME280;4876;42.656;23.292;2023-10-31T11:09:23;94156.75;;;19.32;48.12
9676;BME280;4876;42.656;23.292;2023-10-31T11:11:50;94156.09;;;19.46;48.09
9676;BME280;4876;42.656;23.292;2023-10-31T11:14:17;94151.25;;;19.59;48.17
9676;BME280;4876;42.656;23.292;2023-10-31T11:16:50;94141.72;;;19.58;47.35
9676;BME280;4876;42.656;23.292;2023-10-31T11:19:18;94134.75;;;19.46;47.42
9676;BME280;4876;42.656;23.292;2023-10-31T11:21:53;94134.47;;;19.58;46.73
9676;BME280;4876;42.656;23.292;2023-10-31T11:24:21;94132.16;;;19.57;44.47
9676;BME280;4876;42.656;23.292;2023-10-31T11:26:53;94119.59;;;19.57;44.89
9676;BME280;4876;42.656;23.292;2023-10-31T11:29:24;94118.56;;;19.76;44.08
9676;BME280;4876;42.656;23.292;2023-10-31T11:31:51;94108.28;;;19.78;42.35
9676;BME280;4876;42.656;23.292;2023-10-31T11:34:20;94104.47;;;19.76;42.51
9676;BME280;4876;42.656;23.292;2023-10-31T11:36:47;94108.25;;;19.71;41.46
9676;BME280;4876;42.656;23.292;2023-10-31T11:39:15;94102.91;;;19.71;41.10
9676;BME280;4876;42.656;23.292;2023-10-31T11:41:48;94099.16;;;19.86;41.75
9676;BME280;4876;42.656;23.292;2023-10-31T11:44:17;94098.47;;;19.97;41.88
9676;BME280;4876;42.656;23.292;2023-10-31T11:46:44;94081.75;;;20.07;42.02
9676;BME280;4876;42.656;23.292;2023-10-31T11:49:15;94083.25;;;20.11;42.23
9676;BME280;4876;42.656;23.292;2023-10-31T11:51:45;94083.31;;;20.22;41.38
9676;BME280;4876;42.656;23.292;2023-10-31T11:54:31;94080.63;;;20.22;41.56
9676;BME280;4876;42.656;23.292;2023-10-31T11:56:58;94073.03;;;20.31;41.45
9676;BME280;4876;42.656;23.292;2023-10-31T11:59:35;94068.81;;;20.30;41.44
9676;BME280;4876;42.656;23.292;2023-10-31T12:02:12;94071.53;;;20.37;40.55
9676;BME280;4876;42.656;23.292;2023-10-31T12:04:39;94068.81;;;20.30;41.91
9676;BME280;4876;42.656;23.292;2023-10-31T12:07:06;94064.28;;;20.38;41.21
9676;BME280;4876;42.656;23.292;2023-10-31T12:09:33;94049.78;;;20.42;41.03
9676;BME280;4876;42.656;23.292;2023-10-31T12:12:00;94049.00;;;20.28;41.22
9676;BME280;4876;42.656;23.292;2023-10-31T12:14:28;94050.13;;;20.20;41.62
9676;BME280;4876;42.656;23.292;2023-10-31T12:16:55;94051.66;;;20.28;41.44
9676;BME280;4876;42.656;23.292;2023-10-31T12:19:22;94049.75;;;20.35;40.69
9676;BME280;4876;42.656;23.292;2023-10-31T12:21:51;94045.16;;;20.22;41.17
9676;BME280;4876;42.656;23.292;2023-10-31T12:24:20;94045.56;;;20.41;41.29
9676;BME280;4876;42.656;23.292;2023-10-31T12:26:47;94044.50;;;20.64;41.23
9676;BME280;4876;42.656;23.292;2023-10-31T12:29:16;94042.97;;;20.84;40.81
9676;BME280;4876;42.656;23.292;2023-10-31T12:31:47;94042.97;;;20.77;41.00
9676;BME280;4876;42.656;23.292;2023-10-31T12:34:14;94029.59;;;20.98;40.24
9676;BME280;4876;42.656;23.292;2023-10-31T12:36:42;94024.28;;;21.02;40.37
9676;BME280;4876;42.656;23.292;2023-10-31T12:39:10;94023.13;;;20.71;41.13
9676;BME280;4876;42.656;23.292;2023-10-31T12:41:38;94012.44;;;20.71;40.99
9676;BME280;4876;42.656;23.292;2023-10-31T12:44:07;94007.84;;;20.89;40.67
9676;BME280;4876;42.656;23.292;2023-10-31T12:46:39;94005.56;;;20.81;40.96
9676;BME280;4876;42.656;23.292;2023-10-31T12:49:12;93998.31;;;20.88;41.41
9676;BME280;4876;42.656;23.292;2023-10-31T12:51:55;94008.59;;;21.08;41.40
9676;BME280;4876;42.656;23.292;2023-10-31T12:54:27;94008.22;;;21.06;41.35
9676;BME280;4876;42.656;23.292;2023-10-31T12:56:59;94005.56;;;21.06;42.70
9676;BME280;4876;42.656;23.292;2023-10-31T12:59:26;94010.09;;;21.23;43.09
9676;BME280;4876;42.656;23.292;2023-10-31T13:01:53;94007.03;;;21.17;43.19
9676;BME280;4876;42.656;23.292;2023-10-31T13:04:26;94006.28;;;21.24;42.60
9676;BME280;4876;42.656;23.292;2023-10-31T13:06:57;94007.03;;;21.35;40.39
9676;BME280;4876;42.656;23.292;2023-10-31T13:09:28;94003.59;;;21.35;41.02
9676;BME280;4876;42.656;23.292;2023-10-31T13:11:57;94009.34;;;21.26;40.75
9676;BME280;4876;42.656;23.292;2023-10-31T13:14:24;94001.31;;;21.30;41.36
9676;BME280;4876;42.656;23.292;2023-10-31T13:16:51;93997.13;;;21.25;41.88